Time;durP1;ratioP1;P1;durP2;ratioP2;P2;SDS_P1;SDS_P2;PMS_P1;PMS_P2;Temp;Humidity;BMP_temperature;BMP_pressure;BME280_temperature;BME280_humidity;BME280_pressure;Samples;Min_cycle;Max_cycle;Signal;HPM_P1;HPM_P2
2022/06/08 00:00:11;;;;;;;11.63;5.78;;;;;;;;;;5085277;28;20040;-60
2022/06/08 00:02:38;;;;;;;12.73;6.55;;;;;;;;;;5091324;28;20123;-61
2022/06/08 00:05:05;;;;;;;14.13;6.90;;;;;;;;;;5080119;28;20032;-60
2022/06/08 00:07:31;;;;;;;14.52;7.15;;;;;;;;;;5083479;28;20412;-60
2022/06/08 00:09:58;;;;;;;17.05;7.72;;;;;;;;;;5095828;28;20481;-60
2022/06/08 00:12:24;;;;;;;11.93;8.32;;;;;;;;;;5100951;28;20040;-60
2022/06/08 00:14:50;;;;;;;12.05;8.02;;;;;;;;;;5091233;28;20040;-60
2022/06/08 00:17:17;;;;;;;12.75;7.50;;;;;;;;;;5094173;28;20097;-60
2022/06/08 00:19:43;;;;;;;18.35;7.18;;;;;;;;;;5090327;28;20041;-60
2022/06/08 00:22:09;;;;;;;13.15;7.15;;;;;;;;;;5075286;28;20042;-61
2022/06/08 00:24:35;;;;;;;11.70;8.05;;;;;;;;;;5096886;28;20521;-60
2022/06/08 00:27:01;;;;;;;15.82;7.95;;;;;;;;;;5091220;28;20496;-61
2022/06/08 00:29:28;;;;;;;11.70;8.73;;;;;;;;;;5093901;28;20082;-60
2022/06/08 00:31:54;;;;;;;12.27;7.78;;;;;;;;;;5087923;28;20418;-61
2022/06/08 00:34:20;;;;;;;10.68;6.57;;;;;;;;;;5086673;28;20048;-61
2022/06/08 00:36:46;;;;;;;10.82;6.97;;;;;;;;;;5097901;28;20039;-60
2022/06/08 00:39:12;;;;;;;13.82;8.45;;;;;;;;;;5089595;28;20043;-60
2022/06/08 00:41:52;;;;;;;11.70;7.25;;;;;;;;;;5095674;28;20047;-60
2022/06/08 00:44:30;;;;;;;12.02;7.20;;;;;;;;;;5090888;28;20446;-60
2022/06/08 00:46:58;;;;;;;12.32;7.25;;;;;;;;;;5084064;28;20110;-60
2022/06/08 00:49:26;;;;;;;14.18;6.82;;;;;;;;;;5105843;28;20048;-60
2022/06/08 00:51:52;;;;;;;10.68;8.18;;;;;;;;;;5093283;28;20088;-61
2022/06/08 00:54:22;;;;;;;12.00;6.85;;;;;;;;;;5066594;28;20288;-60
2022/06/08 00:56:50;;;;;;;7.93;6.63;;;;;;;;;;5080324;28;20044;-60
2022/06/08 00:59:16;;;;;;;13.18;7.07;;;;;;;;;;5081421;28;20474;-60
2022/06/08 01:01:42;;;;;;;8.63;6.22;;;;;;;;;;5087979;28;20115;-61
2022/06/08 01:04:13;;;;;;;10.95;6.82;;;;;;;;;;5089150;28;20123;-60
2022/06/08 01:06:41;;;;;;;13.93;6.32;;;;;;;;;;5079156;28;20040;-60
2022/06/08 01:09:11;;;;;;;12.10;7.78;;;;;;;;;;5098892;28;20035;-60
2022/06/08 01:11:40;;;;;;;10.35;6.82;;;;;;;;;;5091057;28;20044;-60
2022/06/08 01:14:09;;;;;;;12.43;6.85;;;;;;;;;;5089658;28;20319;-61
2022/06/08 01:16:35;;;;;;;13.18;8.07;;;;;;;;;;5081288;28;20132;-60
2022/06/08 01:19:02;;;;;;;16.63;7.47;;;;;;;;;;5102375;28;20457;-60
2022/06/08 01:21:28;;;;;;;15.65;7.80;;;;;;;;;;5085965;28;20577;-60
2022/06/08 01:23:56;;;;;;;10.60;7.07;;;;;;;;;;5090904;28;20111;-61
2022/06/08 01:26:23;;;;;;;14.48;6.80;;;;;;;;;;5087715;28;20036;-60
2022/06/08 01:28:59;;;;;;;9.63;7.05;;;;;;;;;;5092797;28;20036;-60
2022/06/08 01:31:28;;;;;;;11.95;6.35;;;;;;;;;;5093347;28;20087;-60
2022/06/08 01:34:02;;;;;;;10.05;6.82;;;;;;;;;;5095974;28;20532;-60
2022/06/08 01:36:42;;;;;;;12.75;6.60;;;;;;;;;;5094971;28;20135;-60
2022/06/08 01:39:14;;;;;;;17.13;7.35;;;;;;;;;;5083221;28;20043;-61
2022/06/08 01:41:41;;;;;;;9.07;6.13;;;;;;;;;;5083418;28;20041;-61
2022/06/08 01:44:07;;;;;;;12.93;7.90;;;;;;;;;;5088426;28;20106;-60
2022/06/08 01:46:39;;;;;;;14.75;7.28;;;;;;;;;;5094532;28;20127;-60
2022/06/08 01:49:14;;;;;;;9.13;7.37;;;;;;;;;;5092226;28;20040;-60
2022/06/08 01:51:43;;;;;;;10.90;6.85;;;;;;;;;;5092151;28;20036;-60
2022/06/08 01:54:09;;;;;;;14.15;7.57;;;;;;;;;;5098259;28;20281;-61
2022/06/08 01:56:44;;;;;;;10.13;7.20;;;;;;;;;;5088073;28;20608;-60
2022/06/08 01:59:14;;;;;;;10.00;7.20;;;;;;;;;;5103652;28;20489;-60
2022/06/08 02:01:44;;;;;;;8.93;7.35;;;;;;;;;;5090568;28;20076;-60
2022/06/08 02:04:10;;;;;;;9.60;7.38;;;;;;;;;;5081282;28;20075;-60
2022/06/08 02:06:53;;;;;;;10.63;8.05;;;;;;;;;;5090879;28;20549;-60
2022/06/08 02:09:26;;;;;;;13.05;7.70;;;;;;;;;;5079232;28;20115;-60
2022/06/08 02:11:52;;;;;;;;;;;;;;;;;;5087364;28;20042;-60
2022/06/08 02:14:23;;;;;;;9.57;7.13;;;;;;;;;;5088746;28;20284;-60
2022/06/08 02:16:51;;;;;;;13.52;8.18;;;;;;;;;;5083709;28;20066;-60
2022/06/08 02:19:20;;;;;;;13.48;7.32;;;;;;;;;;5095966;28;20447;-61
2022/06/08 02:21:50;;;;;;;12.18;8.40;;;;;;;;;;5090559;28;20040;-61
2022/06/08 02:24:20;;;;;;;9.75;7.25;;;;;;;;;;5085642;28;20510;-60
2022/06/08 02:26:49;;;;;;;13.90;9.23;;;;;;;;;;5094535;28;20039;-60
2022/06/08 02:29:18;;;;;;;10.43;7.22;;;;;;;;;;5089760;28;20553;-61
2022/06/08 02:31:54;;;;;;;14.02;8.40;;;;;;;;;;5100490;28;20065;-60
2022/06/08 02:34:28;;;;;;;13.75;7.43;;;;;;;;;;5091814;28;20481;-61
2022/06/08 02:37:09;;;;;;;13.13;8.30;;;;;;;;;;5087545;28;20491;-60
2022/06/08 02:39:39;;;;;;;13.85;7.78;;;;;;;;;;5088221;28;20101;-60
2022/06/08 02:42:07;;;;;;;12.57;9.32;;;;;;;;;;5099051;28;20054;-60
2022/06/08 02:44:34;;;;;;;12.48;8.40;;;;;;;;;;5086431;28;20052;-61
2022/06/08 02:47:06;;;;;;;12.48;7.93;;;;;;;;;;5085315;28;20534;-60
2022/06/08 02:49:33;;;;;;;10.07;7.53;;;;;;;;;;5081368;28;20398;-61
2022/06/08 02:52:02;;;;;;;16.13;8.48;;;;;;;;;;5086152;28;20036;-61
2022/06/08 02:54:29;;;;;;;14.32;9.07;;;;;;;;;;5095932;28;20047;-60
2022/06/08 02:57:00;;;;;;;15.10;9.27;;;;;;;;;;5092963;28;20032;-60
2022/06/08 02:59:26;;;;;;;13.35;8.52;;;;;;;;;;5096043;28;20096;-60
2022/06/08 03:01:57;;;;;;;12.30;8.52;;;;;;;;;;5081968;28;20096;-61
2022/06/08 03:04:26;;;;;;;13.07;9.10;;;;;;;;;;5089357;28;20040;-60
2022/06/08 03:07:13;;;;;;;15.23;9.27;;;;;;;;;;5088376;28;20032;-61
2022/06/08 03:09:40;;;;;;;15.88;8.73;;;;;;;;;;5085569;28;20036;-61
2022/06/08 03:12:10;;;;;;;16.30;10.43;;;;;;;;;;5099589;28;20508;-60
2022/06/08 03:14:37;;;;;;;12.52;9.77;;;;;;;;;;5090486;28;20079;-60
2022/06/08 03:17:04;;;;;;;15.38;9.32;;;;;;;;;;5092946;28;20096;-60
2022/06/08 03:19:32;;;;;;;15.23;9.60;;;;;;;;;;5093260;28;20048;-61
2022/06/08 03:21:58;;;;;;;17.45;10.30;;;;;;;;;;5085605;28;20307;-61
2022/06/08 03:24:25;;;;;;;15.13;9.82;;;;;;;;;;5089899;28;20147;-60
2022/06/08 03:26:53;;;;;;;13.50;10.27;;;;;;;;;;5093047;28;20028;-60
2022/06/08 03:29:19;;;;;;;15.55;10.55;;;;;;;;;;5097043;28;20115;-60
2022/06/08 03:31:45;;;;;;;14.98;9.98;;;;;;;;;;5090590;28;20046;-61
2022/06/08 03:34:11;;;;;;;17.27;11.93;;;;;;;;;;5089351;28;20036;-60
2022/06/08 03:36:37;;;;;;;15.45;9.63;;;;;;;;;;5091697;28;20376;-60
2022/06/08 03:39:04;;;;;;;18.90;10.60;;;;;;;;;;5101195;27;20481;-60
2022/06/08 03:41:31;;;;;;;14.07;9.27;;;;;;;;;;5084556;28;20440;-60
2022/06/08 03:43:57;;;;;;;14.98;8.57;;;;;;;;;;5081157;28;20099;-60
2022/06/08 03:46:24;;;;;;;18.52;11.18;;;;;;;;;;5087952;28;20107;-60
2022/06/08 03:48:52;;;;;;;13.85;10.30;;;;;;;;;;5086283;28;20123;-60
2022/06/08 03:51:19;;;;;;;16.05;10.48;;;;;;;;;;5079685;28;20082;-61
2022/06/08 03:53:47;;;;;;;13.93;10.50;;;;;;;;;;5089038;28;20048;-61
2022/06/08 03:56:15;;;;;;;17.15;10.88;;;;;;;;;;5079557;28;20031;-61
2022/06/08 03:58:42;;;;;;;14.55;11.07;;;;;;;;;;5092929;28;20535;-61
2022/06/08 04:01:08;;;;;;;18.00;11.50;;;;;;;;;;5086940;28;20040;-60
2022/06/08 04:03:34;;;;;;;22.67;12.98;;;;;;;;;;5088717;28;20662;-61
2022/06/08 04:06:00;;;;;;;17.70;10.65;;;;;;;;;;5080550;28;20047;-60
2022/06/08 04:08:27;;;;;;;18.38;10.27;;;;;;;;;;5079444;28;20109;-61
2022/06/08 04:10:53;;;;;;;16.55;10.90;;;;;;;;;;5090449;28;20088;-61
2022/06/08 04:13:19;;;;;;;14.35;10.68;;;;;;;;;;5088019;28;20453;-60
2022/06/08 04:15:46;;;;;;;16.00;10.32;;;;;;;;;;5076939;28;20047;-60
2022/06/08 04:18:15;;;;;;;19.00;12.65;;;;;;;;;;5080833;28;20497;-61
2022/06/08 04:20:43;;;;;;;23.42;12.68;;;;;;;;;;5076530;28;20079;-61
2022/06/08 04:23:09;;;;;;;16.73;11.23;;;;;;;;;;5080596;28;20066;-61
2022/06/08 04:25:35;;;;;;;19.25;11.75;;;;;;;;;;5092880;28;20035;-61
2022/06/08 04:28:02;;;;;;;14.63;10.48;;;;;;;;;;5086951;28;20089;-60
2022/06/08 04:30:28;;;;;;;15.93;11.00;;;;;;;;;;5081417;28;20041;-61
2022/06/08 04:32:54;;;;;;;17.10;12.27;;;;;;;;;;5097800;28;20121;-61
2022/06/08 04:35:20;;;;;;;16.98;12.18;;;;;;;;;;5088370;28;20121;-61
2022/06/08 04:37:47;;;;;;;19.63;13.07;;;;;;;;;;5087549;28;20092;-61
2022/06/08 04:40:15;;;;;;;21.63;13.00;;;;;;;;;;5090083;28;20044;-61
2022/06/08 04:42:42;;;;;;;18.98;11.38;;;;;;;;;;5087508;28;20429;-60
2022/06/08 04:45:09;;;;;;;17.17;12.18;;;;;;;;;;5100379;28;20051;-60
2022/06/08 04:47:36;;;;;;;18.25;12.90;;;;;;;;;;5092161;28;20043;-60
2022/06/08 04:50:02;;;;;;;20.70;13.73;;;;;;;;;;5085106;28;20460;-61
2022/06/08 04:52:28;;;;;;;24.60;13.65;;;;;;;;;;5095930;28;20468;-61
2022/06/08 04:54:55;;;;;;;19.42;13.60;;;;;;;;;;5097318;28;20498;-61
2022/06/08 04:57:21;;;;;;;19.20;13.43;;;;;;;;;;5081703;28;20047;-60
2022/06/08 04:59:47;;;;;;;16.08;12.05;;;;;;;;;;5091855;28;20040;-60
2022/06/08 05:02:42;;;;;;;18.50;13.40;;;;;;;;;;5089937;28;20044;-61
2022/06/08 05:04:59;;;;;;;17.75;13.85;;;;;;;;;;5103215;28;20058;-60
2022/06/08 05:07:25;;;;;;;20.83;14.02;;;;;;;;;;5089083;28;20046;-60
2022/06/08 05:09:51;;;;;;;18.33;14.18;;;;;;;;;;5080959;28;20305;-60
2022/06/08 05:12:17;;;;;;;18.70;12.82;;;;;;;;;;5082437;28;20447;-60
2022/06/08 05:14:43;;;;;;;21.38;14.45;;;;;;;;;;5088207;28;20040;-60
2022/06/08 05:17:10;;;;;;;23.33;14.65;;;;;;;;;;5087104;28;20043;-61
2022/06/08 05:19:36;;;;;;;19.55;14.48;;;;;;;;;;5088709;28;20414;-61
2022/06/08 05:22:02;;;;;;;16.63;13.02;;;;;;;;;;5085249;28;20115;-61
2022/06/08 05:24:28;;;;;;;21.17;15.70;;;;;;;;;;5069541;28;20032;-60
2022/06/08 05:26:54;;;;;;;21.77;14.65;;;;;;;;;;5089872;28;20330;-61
2022/06/08 05:29:20;;;;;;;20.77;15.88;;;;;;;;;;5087341;28;20071;-61
2022/06/08 05:31:46;;;;;;;20.85;13.85;;;;;;;;;;5094110;28;20117;-61
2022/06/08 05:34:12;;;;;;;18.75;13.00;;;;;;;;;;5089053;28;20107;-60
2022/06/08 05:36:38;;;;;;;22.70;13.93;;;;;;;;;;5093882;28;20508;-61
2022/06/08 05:39:05;;;;;;;22.55;15.73;;;;;;;;;;5092078;28;20059;-61
2022/06/08 05:41:32;;;;;;;20.55;14.35;;;;;;;;;;5086580;28;20516;-61
2022/06/08 05:43:58;;;;;;;25.23;14.15;;;;;;;;;;5092291;28;20064;-61
2022/06/08 05:46:24;;;;;;;22.77;14.80;;;;;;;;;;5093011;27;20062;-61
2022/06/08 05:48:50;;;;;;;22.13;14.85;;;;;;;;;;5090885;28;20032;-61
2022/06/08 05:51:16;;;;;;;29.98;16.02;;;;;;;;;;5089362;28;20033;-60
2022/06/08 05:53:45;;;;;;;19.20;13.55;;;;;;;;;;5091308;28;20081;-61
2022/06/08 05:56:11;;;;;;;23.40;15.30;;;;;;;;;;5082556;28;20048;-61
2022/06/08 05:58:37;;;;;;;24.35;14.70;;;;;;;;;;5091739;28;20193;-61
2022/06/08 06:01:04;;;;;;;23.60;16.20;;;;;;;;;;5090241;28;20536;-60
2022/06/08 06:03:30;;;;;;;20.95;14.27;;;;;;;;;;5096217;28;20378;-61
2022/06/08 06:05:57;;;;;;;23.40;15.05;;;;;;;;;;5097559;28;20039;-61
2022/06/08 06:08:23;;;;;;;24.58;15.10;;;;;;;;;;5083200;28;20040;-60
2022/06/08 06:10:50;;;;;;;20.58;15.43;;;;;;;;;;5087701;28;20371;-61
2022/06/08 06:13:18;;;;;;;25.13;15.00;;;;;;;;;;5083166;28;20145;-61
2022/06/08 06:15:45;;;;;;;22.70;14.45;;;;;;;;;;5094292;28;20126;-60
2022/06/08 06:18:11;;;;;;;20.58;13.65;;;;;;;;;;5098228;28;20493;-61
2022/06/08 06:20:38;;;;;;;23.88;14.60;;;;;;;;;;5085983;28;20119;-61
2022/06/08 06:23:04;;;;;;;19.58;12.82;;;;;;;;;;5077624;28;20041;-61
2022/06/08 06:25:31;;;;;;;20.55;12.75;;;;;;;;;;5090313;28;20047;-61
2022/06/08 06:27:57;;;;;;;18.20;12.85;;;;;;;;;;5080421;28;20033;-61
2022/06/08 06:30:23;;;;;;;25.83;14.90;;;;;;;;;;5094352;28;20050;-61
2022/06/08 06:32:49;;;;;;;23.70;14.52;;;;;;;;;;5085478;28;20040;-61
2022/06/08 06:35:18;;;;;;;20.10;14.52;;;;;;;;;;5083216;28;20073;-61
2022/06/08 06:37:44;;;;;;;17.98;13.90;;;;;;;;;;5088931;28;20505;-61
2022/06/08 06:40:11;;;;;;;23.40;12.57;;;;;;;;;;5088653;28;20104;-61
2022/06/08 06:42:37;;;;;;;16.67;11.60;;;;;;;;;;5089240;28;20078;-61
2022/06/08 06:45:03;;;;;;;17.92;12.48;;;;;;;;;;5090532;28;20498;-61
2022/06/08 06:47:29;;;;;;;18.88;12.73;;;;;;;;;;5089103;28;20071;-61
2022/06/08 06:49:56;;;;;;;16.35;11.90;;;;;;;;;;5069707;28;20067;-61
2022/06/08 06:52:22;;;;;;;15.07;11.38;;;;;;;;;;5099649;28;20039;-61
2022/06/08 06:54:49;;;;;;;15.95;11.63;;;;;;;;;;5085999;28;20394;-61
2022/06/08 06:57:15;;;;;;;20.80;11.82;;;;;;;;;;5091157;28;20042;-61
2022/06/08 06:59:42;;;;;;;19.25;10.43;;;;;;;;;;5090434;28;20597;-61
2022/06/08 07:02:12;;;;;;;16.85;12.63;;;;;;;;;;5075538;28;20466;-61
2022/06/08 07:04:38;;;;;;;17.33;11.13;;;;;;;;;;5099974;28;20040;-61
2022/06/08 07:07:05;;;;;;;16.77;10.48;;;;;;;;;;5096992;28;20389;-61
2022/06/08 07:09:31;;;;;;;17.73;10.75;;;;;;;;;;5088211;28;20043;-61
2022/06/08 07:11:57;;;;;;;19.80;12.07;;;;;;;;;;5083059;28;20036;-60
2022/06/08 07:14:23;;;;;;;13.38;9.93;;;;;;;;;;5102153;28;20089;-61
2022/06/08 07:16:51;;;;;;;17.35;10.95;;;;;;;;;;5099795;28;20035;-61
2022/06/08 07:19:18;;;;;;;17.85;10.45;;;;;;;;;;5075121;28;20609;-61
2022/06/08 07:21:45;;;;;;;14.85;10.20;;;;;;;;;;5082715;28;20040;-61
2022/06/08 07:24:19;;;;;;;15.38;10.15;;;;;;;;;;5090636;28;20032;-61
2022/06/08 07:26:45;;;;;;;16.90;10.75;;;;;;;;;;5077053;28;20099;-61
2022/06/08 07:29:13;;;;;;;14.52;10.40;;;;;;;;;;5082391;28;20048;-61
2022/06/08 07:31:40;;;;;;;16.13;10.00;;;;;;;;;;5083246;28;20044;-61
2022/06/08 07:34:06;;;;;;;19.13;11.30;;;;;;;;;;5088864;28;20046;-61
2022/06/08 07:36:32;;;;;;;13.70;9.45;;;;;;;;;;5099681;28;20035;-61
2022/06/08 07:38:58;;;;;;;13.23;9.65;;;;;;;;;;5090429;28;20043;-61
2022/06/08 07:41:25;;;;;;;13.00;10.02;;;;;;;;;;5085596;28;20039;-61
2022/06/08 07:43:51;;;;;;;17.10;9.82;;;;;;;;;;5082285;28;20486;-61
2022/06/08 07:46:19;;;;;;;14.88;10.50;;;;;;;;;;5080125;28;20064;-61
2022/06/08 07:51:31;;;;;;;14.82;10.23;;;;;;;;;;5086203;28;20604;-61
2022/06/08 07:53:58;;;;;;;15.90;10.75;;;;;;;;;;5089229;28;20043;-61
2022/06/08 07:56:24;;;;;;;13.98;9.82;;;;;;;;;;5085802;28;20040;-61
2022/06/08 07:58:50;;;;;;;12.95;9.68;;;;;;;;;;5089582;28;20036;-61
2022/06/08 08:01:16;;;;;;;15.25;9.88;;;;;;;;;;5087723;28;20036;-61
2022/06/08 08:03:43;;;;;;;15.18;8.63;;;;;;;;;;5078969;28;20707;-61
2022/06/08 08:06:09;;;;;;;12.13;8.50;;;;;;;;;;5097523;28;20493;-61
2022/06/08 08:08:36;;;;;;;15.50;8.10;;;;;;;;;;5086355;28;20040;-61
2022/06/08 08:11:04;;;;;;;12.73;7.75;;;;;;;;;;5086384;28;20097;-61
2022/06/08 08:13:30;;;;;;;16.60;9.23;;;;;;;;;;5080398;28;20382;-61
2022/06/08 08:15:56;;;;;;;12.65;8.85;;;;;;;;;;5093667;28;20040;-61
2022/06/08 08:18:22;;;;;;;12.10;9.27;;;;;;;;;;5094373;28;20396;-61
2022/06/08 08:20:48;;;;;;;10.48;7.45;;;;;;;;;;5087184;28;20040;-61
2022/06/08 08:23:15;;;;;;;14.15;8.63;;;;;;;;;;5079263;28;20040;-61
2022/06/08 08:25:41;;;;;;;12.68;7.82;;;;;;;;;;5095328;28;20039;-61
2022/06/08 08:28:07;;;;;;;10.70;7.70;;;;;;;;;;5085906;28;20040;-61
2022/06/08 08:30:34;;;;;;;10.23;7.90;;;;;;;;;;5090017;28;20425;-61
2022/06/08 08:33:00;;;;;;;10.85;7.97;;;;;;;;;;5093237;28;20091;-61
2022/06/08 08:35:27;;;;;;;12.05;7.65;;;;;;;;;;5091996;28;20039;-61
2022/06/08 08:37:54;;;;;;;10.55;7.00;;;;;;;;;;5083584;28;20442;-62
2022/06/08 08:40:39;;;;;;;10.90;6.88;;;;;;;;;;5086426;28;20474;-61
2022/06/08 08:43:08;;;;;;;12.52;8.52;;;;;;;;;;5088408;28;20134;-61
2022/06/08 08:45:41;;;;;;;10.45;7.18;;;;;;;;;;5082541;28;20113;-61
2022/06/08 08:48:07;;;;;;;;;;;;;;;;;;5082309;28;20093;-61
2022/06/08 08:50:35;;;;;;;9.85;7.00;;;;;;;;;;5083891;28;20070;-61
2022/06/08 08:53:10;;;;;;;12.77;7.18;;;;;;;;;;5099674;28;20432;-61
2022/06/08 08:55:46;;;;;;;10.68;7.45;;;;;;;;;;5091536;28;20043;-61
2022/06/08 08:58:15;;;;;;;9.07;6.13;;;;;;;;;;5083447;28;20044;-61
2022/06/08 09:00:43;;;;;;;9.65;6.63;;;;;;;;;;5093609;28;20037;-61
2022/06/08 09:03:19;;;;;;;8.70;6.47;;;;;;;;;;5087902;28;20040;-61
2022/06/08 09:05:48;;;;;;;9.18;6.28;;;;;;;;;;5092448;28;20086;-62
2022/06/08 09:08:15;;;;;;;11.25;6.50;;;;;;;;;;5094463;28;20036;-61
2022/06/08 09:10:41;;;;;;;11.23;5.97;;;;;;;;;;5092809;28;20036;-61
2022/06/08 09:13:11;;;;;;;9.70;6.15;;;;;;;;;;5099947;28;20443;-61
2022/06/08 09:15:46;;;;;;;8.50;5.85;;;;;;;;;;5093858;28;20259;-61
2022/06/08 09:18:33;;;;;;;8.00;5.93;;;;;;;;;;5087655;28;20513;-61
2022/06/08 09:21:01;;;;;;;7.55;5.22;;;;;;;;;;5069077;28;20139;-61
2022/06/08 09:23:42;;;;;;;9.15;5.40;;;;;;;;;;5087093;28;20040;-61
2022/06/08 09:26:27;;;;;;;6.93;5.40;;;;;;;;;;5098638;28;20494;-61
2022/06/08 09:29:13;;;;;;;7.03;5.03;;;;;;;;;;5083773;28;20073;-61
2022/06/08 09:31:40;;;;;;;6.53;4.03;;;;;;;;;;5081913;28;20040;-61
2022/06/08 09:34:18;;;;;;;6.00;3.53;;;;;;;;;;5088828;28;20055;-61
2022/06/08 09:36:45;;;;;;;9.10;3.53;;;;;;;;;;5100162;28;20112;-61
2022/06/08 09:39:13;;;;;;;12.32;4.50;;;;;;;;;;5085545;28;20040;-61
2022/06/08 09:41:50;;;;;;;8.27;4.82;;;;;;;;;;5089735;28;20261;-61
2022/06/08 09:44:27;;;;;;;7.55;4.15;;;;;;;;;;5081878;28;20107;-61
2022/06/08 09:52:53;;;;;;;8.23;4.20;;;;;;;;;;5091020;28;20380;-61
2022/06/08 09:55:24;;;;;;;7.43;4.65;;;;;;;;;;5081625;28;20035;-61
2022/06/08 09:58:08;;;;;;;6.03;4.30;;;;;;;;;;5091118;28;20506;-61
2022/06/08 10:00:35;;;;;;;7.13;3.60;;;;;;;;;;5099060;28;20084;-61
2022/06/08 10:03:11;;;;;;;4.97;3.72;;;;;;;;;;5099729;28;20067;-61
2022/06/08 10:05:55;;;;;;;5.75;3.53;;;;;;;;;;5090291;28;20134;-61
2022/06/08 10:08:32;;;;;;;5.45;3.50;;;;;;;;;;5086739;28;20040;-61
2022/06/08 10:11:34;;;;;;;6.40;3.20;;;;;;;;;;5087763;28;20085;-61
2022/06/08 10:14:03;;;;;;;4.30;3.30;;;;;;;;;;5090228;28;20047;-61
2022/06/08 10:16:31;;;;;;;6.63;3.55;;;;;;;;;;5096943;28;20415;-61
2022/06/08 10:19:06;;;;;;;4.93;3.67;;;;;;;;;;5097724;28;20050;-61
2022/06/08 10:21:35;;;;;;;6.53;3.65;;;;;;;;;;5088196;28;20076;-61
2022/06/08 10:24:22;;;;;;;5.60;4.07;;;;;;;;;;5087302;28;20572;-61
2022/06/08 10:26:51;;;;;;;5.40;3.20;;;;;;;;;;5088390;28;20036;-61
2022/06/08 10:29:26;;;;;;;7.35;3.85;;;;;;;;;;5082675;28;20059;-61
2022/06/08 10:32:00;;;;;;;7.55;4.18;;;;;;;;;;5098510;27;20375;-61
2022/06/08 10:34:31;;;;;;;6.25;3.97;;;;;;;;;;5090096;28;20085;-61
2022/06/08 10:37:05;;;;;;;4.75;3.72;;;;;;;;;;5081750;28;20037;-61
2022/06/08 10:39:32;;;;;;;5.93;3.50;;;;;;;;;;5085316;28;20045;-61
2022/06/08 10:42:40;;;;;;;7.45;3.65;;;;;;;;;;5091768;28;20040;-61
2022/06/08 10:45:26;;;;;;;5.72;3.55;;;;;;;;;;5086834;28;20406;-61
2022/06/08 10:47:56;;;;;;;8.32;5.13;;;;;;;;;;5090588;28;20085;-61
2022/06/08 10:50:27;;;;;;;11.77;6.57;;;;;;;;;;5086209;28;20039;-61
2022/06/08 10:54:52;;;;;;;9.68;5.22;;;;;;;;;;5091211;28;20044;-61
2022/06/08 10:55:41;;;;;;;7.85;6.15;;;;;;;;;;5083515;28;20044;-62
2022/06/08 10:58:08;;;;;;;6.90;5.55;;;;;;;;;;5092876;28;20036;-61
2022/06/08 11:00:58;;;;;;;9.40;6.70;;;;;;;;;;5095053;28;20102;-61
2022/06/08 11:03:42;;;;;;;10.30;7.07;;;;;;;;;;5088122;28;20058;-61
2022/06/08 11:06:31;;;;;;;8.18;6.35;;;;;;;;;;5093193;28;20040;-61
2022/06/08 11:08:58;;;;;;;9.85;6.22;;;;;;;;;;5084289;28;20524;-61
2022/06/08 11:11:38;;;;;;;10.48;6.82;;;;;;;;;;5084353;28;20036;-61
2022/06/08 11:14:24;;;;;;;11.52;6.82;;;;;;;;;;5092261;28;20157;-61
2022/06/08 11:16:50;;;;;;;9.85;6.25;;;;;;;;;;5085507;28;20054;-61
2022/06/08 11:19:17;;;;;;;7.97;5.90;;;;;;;;;;5080703;28;20044;-61
2022/06/08 11:21:54;;;;;;;9.15;6.65;;;;;;;;;;5085522;28;20047;-61
2022/06/08 11:24:36;;;;;;;12.82;7.30;;;;;;;;;;5083016;28;20040;-61
2022/06/08 11:27:14;;;;;;;8.90;7.43;;;;;;;;;;5087743;28;20044;-61
2022/06/08 11:29:52;;;;;;;10.75;6.80;;;;;;;;;;5088867;28;20043;-61
2022/06/08 11:32:34;;;;;;;12.05;7.38;;;;;;;;;;5091255;28;20039;-61
2022/06/08 11:35:11;;;;;;;11.60;6.38;;;;;;;;;;5083308;28;20494;-61
2022/06/08 11:37:43;;;;;;;9.25;7.03;;;;;;;;;;5082841;28;20040;-61
2022/06/08 11:40:25;;;;;;;8.65;6.80;;;;;;;;;;5093326;28;20405;-61
2022/06/08 11:43:07;;;;;;;14.07;7.75;;;;;;;;;;5071902;28;20119;-61
2022/06/08 11:45:39;;;;;;;9.57;6.70;;;;;;;;;;5085723;28;20423;-61
2022/06/08 11:48:15;;;;;;;9.23;7.13;;;;;;;;;;5088227;28;20118;-61
2022/06/08 11:50:43;;;;;;;9.77;6.38;;;;;;;;;;5094427;28;20036;-61
2022/06/08 11:53:28;;;;;;;11.18;6.93;;;;;;;;;;5074774;28;20119;-61
2022/06/08 11:56:15;;;;;;;9.35;7.10;;;;;;;;;;5088936;28;20137;-61
2022/06/08 11:59:01;;;;;;;9.85;6.70;;;;;;;;;;5095271;28;20046;-61
2022/06/08 12:01:30;;;;;;;9.38;7.65;;;;;;;;;;5097908;28;20394;-61
2022/06/08 12:04:01;;;;;;;12.13;6.68;;;;;;;;;;5081209;28;20051;-61
2022/06/08 12:06:36;;;;;;;12.50;7.20;;;;;;;;;;5090928;28;20413;-61
2022/06/08 12:09:05;;;;;;;10.25;7.25;;;;;;;;;;5083068;28;20367;-61
2022/06/08 12:11:33;;;;;;;12.35;7.28;;;;;;;;;;5090748;28;20135;-61
2022/06/08 12:14:14;;;;;;;12.18;8.35;;;;;;;;;;5083248;28;20119;-61
2022/06/08 12:16:50;;;;;;;11.27;8.20;;;;;;;;;;5081296;28;20079;-61
2022/06/08 12:19:19;;;;;;;12.18;8.15;;;;;;;;;;5097274;28;20580;-61
2022/06/08 12:21:47;;;;;;;10.32;7.70;;;;;;;;;;5092151;28;20474;-61
2022/06/08 12:24:13;;;;;;;12.25;8.00;;;;;;;;;;5091058;28;20030;-61
2022/06/08 12:26:55;;;;;;;11.73;8.52;;;;;;;;;;5089265;28;20052;-61
2022/06/08 12:29:25;;;;;;;13.43;8.82;;;;;;;;;;5086813;28;20028;-61
2022/06/08 12:32:02;;;;;;;10.00;8.73;;;;;;;;;;5085229;28;20036;-61
2022/06/08 12:34:47;;;;;;;12.65;8.45;;;;;;;;;;5080986;28;20047;-61
2022/06/08 12:37:29;;;;;;;13.25;10.48;;;;;;;;;;5085313;28;20052;-61
2022/06/08 12:40:00;;;;;;;13.05;8.95;;;;;;;;;;5080012;28;20044;-61
2022/06/08 12:42:30;;;;;;;12.05;10.25;;;;;;;;;;5082172;28;20051;-61
2022/06/08 12:44:58;;;;;;;12.73;10.20;;;;;;;;;;5084754;28;20067;-61
2022/06/08 12:47:28;;;;;;;12.57;10.52;;;;;;;;;;5085777;28;20516;-61
2022/06/08 12:50:14;;;;;;;17.13;12.48;;;;;;;;;;5086580;28;20083;-61
2022/06/08 12:52:41;;;;;;;14.40;12.35;;;;;;;;;;5083592;28;20462;-61
2022/06/08 12:55:13;;;;;;;19.05;13.23;;;;;;;;;;5083041;28;20040;-62
2022/06/08 12:57:42;;;;;;;17.73;15.23;;;;;;;;;;5082651;28;20057;-61
2022/06/08 13:00:09;;;;;;;18.90;14.85;;;;;;;;;;5079331;28;20064;-61
2022/06/08 13:02:38;;;;;;;17.88;15.52;;;;;;;;;;5083922;28;20040;-61
2022/06/08 13:05:08;;;;;;;22.98;13.60;;;;;;;;;;5080620;28;20097;-61
2022/06/08 13:07:35;;;;;;;12.90;11.10;;;;;;;;;;5085316;28;20385;-61
2022/06/08 13:10:01;;;;;;;12.15;10.10;;;;;;;;;;5083084;28;20062;-61
2022/06/08 13:12:36;;;;;;;10.13;8.23;;;;;;;;;;5084155;28;20044;-61
2022/06/08 13:15:02;;;;;;;10.35;7.32;;;;;;;;;;5083170;28;20063;-62
2022/06/08 13:17:28;;;;;;;6.80;5.70;;;;;;;;;;5083859;28;20036;-61
2022/06/08 13:19:57;;;;;;;7.90;5.00;;;;;;;;;;5085759;28;20058;-61
2022/06/08 13:22:25;;;;;;;9.23;5.22;;;;;;;;;;5085773;28;20105;-61
2022/06/08 13:24:52;;;;;;;5.70;4.57;;;;;;;;;;5084289;28;20044;-61
2022/06/08 13:27:18;;;;;;;8.07;4.50;;;;;;;;;;5083493;28;20090;-61
2022/06/08 13:29:45;;;;;;;6.68;4.53;;;;;;;;;;5082908;28;20039;-61
2022/06/08 13:32:14;;;;;;;9.38;4.85;;;;;;;;;;5085325;28;20441;-61
2022/06/08 13:34:40;;;;;;;5.57;4.22;;;;;;;;;;5081169;28;20044;-61
2022/06/08 13:37:14;;;;;;;7.35;3.88;;;;;;;;;;5087365;28;20055;-61
2022/06/08 13:39:41;;;;;;;6.00;4.20;;;;;;;;;;5079968;28;20516;-61
2022/06/08 13:42:12;;;;;;;6.90;5.22;;;;;;;;;;5092201;28;20070;-61
2022/06/08 13:44:40;;;;;;;5.93;3.88;;;;;;;;;;5081126;28;20040;-61
2022/06/08 13:47:14;;;;;;;8.23;4.60;;;;;;;;;;5091203;28;20086;-61
2022/06/08 13:49:44;;;;;;;5.50;4.25;;;;;;;;;;5088435;28;20044;-61
2022/06/08 13:52:13;;;;;;;8.32;4.60;;;;;;;;;;5088436;28;20047;-62
2022/06/08 13:54:41;;;;;;;11.43;4.45;;;;;;;;;;5087497;28;20088;-61
2022/06/08 13:57:11;;;;;;;8.05;5.45;;;;;;;;;;5088581;28;20052;-61
2022/06/08 13:59:38;;;;;;;7.88;4.80;;;;;;;;;;5090587;28;20588;-62
2022/06/08 14:02:13;;;;;;;7.65;4.30;;;;;;;;;;5089433;28;20095;-61
2022/06/08 14:04:40;;;;;;;6.03;4.30;;;;;;;;;;5089287;28;20035;-61
2022/06/08 14:13:02;;;;;;;10.18;5.20;;;;;;;;;;5045382;28;20036;-61
2022/06/08 14:15:29;;;;;;;6.80;5.15;;;;;;;;;;5082346;28;20048;-60
2022/06/08 14:17:55;;;;;;;8.18;6.38;;;;;;;;;;5089690;28;20482;-61
2022/06/08 14:20:33;;;;;;;8.45;5.75;;;;;;;;;;5092283;28;20082;-61
2022/06/08 14:23:00;;;;;;;8.82;6.00;;;;;;;;;;5086282;28;20072;-61
2022/06/08 14:25:26;;;;;;;8.00;5.70;;;;;;;;;;5089477;28;20038;-61
2022/06/08 14:27:52;;;;;;;11.52;6.10;;;;;;;;;;5084191;28;20047;-60
2022/06/08 14:30:19;;;;;;;13.07;6.25;;;;;;;;;;5090058;28;20036;-60
2022/06/08 14:32:51;;;;;;;7.15;5.88;;;;;;;;;;5088689;28;20123;-60
2022/06/08 14:35:22;;;;;;;9.55;5.70;;;;;;;;;;5091365;28;20110;-61
2022/06/08 14:37:50;;;;;;;7.57;5.75;;;;;;;;;;5087401;28;20047;-60
2022/06/08 14:40:21;;;;;;;6.45;5.50;;;;;;;;;;5081281;28;20098;-60
2022/06/08 14:42:47;;;;;;;10.57;4.78;;;;;;;;;;5082905;28;20044;-60
2022/06/08 14:45:14;;;;;;;7.22;5.43;;;;;;;;;;5086849;28;20052;-60
2022/06/08 14:47:40;;;;;;;9.60;4.93;;;;;;;;;;5091011;28;20156;-60
2022/06/08 14:50:08;;;;;;;8.65;5.80;;;;;;;;;;5082434;28;20044;-60
2022/06/08 14:52:35;;;;;;;9.00;5.10;;;;;;;;;;5098616;28;20040;-61
2022/06/08 14:55:03;;;;;;;4.35;2.65;;;;;;;;;;5085791;28;20039;-61
2022/06/08 14:57:33;;;;;;;3.40;2.40;;;;;;;;;;5095312;28;20077;-61
2022/06/08 15:00:18;;;;;;;4.30;2.47;;;;;;;;;;5092105;28;20132;-60